Time,TemperatureF,DewpointF,PressureIn,WindDirection,WindDirectionDegrees,WindSpeedMPH,WindSpeedGustMPH,Humidity,HourlyPrecipIn,Conditions,Clouds,dailyrainin,SolarRadiationWatts/m^2,SoftwareType,DateUTC
2013-05-08 00:00:00,62.2,53.1,29.96,East,80,1.0,1.0,72,0.00,,,0.00,0,Wunderground v.1.15,2013-05-08 04:00:00,
2013-05-08 00:01:00,62.2,53.4,29.96,East,80,1.0,5.0,73,0.00,,,0.00,0,Wunderground v.1.15,2013-05-08 04:01:00,
2013-05-08 00:02:00,62.2,53.1,29.96,East,79,0.0,5.0,72,0.00,,,0.00,0,Wunderground v.1.15,2013-05-08 04:02:00,
2013-05-08 00:05:00,62.0,53.2,29.96,East,80,0.0,5.0,73,0.00,,,0.00,0,Wunderground v.1.15,2013-05-08 04:05:00,
2013-05-08 00:08:00,61.8,53.4,29.96,East,80,0.0,5.0,74,0.00,,,0.00,0,Wunderground v.1.15,2013-05-08 04:08:00,
2013-05-08 00:09:00,61.7,53.0,29.96,East,79,0.0,5.0,73,0.00,,,0.00,0,Wunderground v.1.15,2013-05-08 04:09:00,
2013-05-08 00:15:00,61.4,53.0,29.96,East,80,1.0,5.0,74,0.00,,,0.00,0,Wunderground v.1.15,2013-05-08 04:15:00,
2013-05-08 00:20:00,61.2,52.8,29.95,East,80,0.0,5.0,74,0.00,,,0.00,0,Wunderground v.1.15,2013-05-08 04:20:00,
2013-05-08 00:26:00,61.0,53.4,29.95,East,80,0.0,5.0,76,0.00,,,0.00,0,Wunderground v.1.15,2013-05-08 04:26:00,
2013-05-08 00:32:00,60.8,53.2,29.95,East,80,0.0,5.0,76,0.00,,,0.00,0,Wunderground v.1.15,2013-05-08 04:32:00,
2013-05-08 00:37:00,60.5,53.6,29.95,East,80,0.0,5.0,78,0.00,,,0.00,0,Wunderground v.1.15,2013-05-08 04:37:00,
2013-05-08 00:43:00,60.1,53.6,29.95,East,80,0.0,5.0,79,0.00,,,0.00,0,Wunderground v.1.15,2013-05-08 04:43:00,
2013-05-08 00:49:00,59.7,53.2,29.95,East,79,0.0,5.0,79,0.00,,,0.00,0,Wunderground v.1.15,2013-05-08 04:49:00,
2013-05-08 00:54:00,59.4,53.2,29.95,East,80,0.0,5.0,80,0.00,,,0.00,0,Wunderground v.1.15,2013-05-08 04:54:00,
2013-05-08 01:00:00,58.9,53.7,29.95,East,79,0.0,0.0,83,0.00,,,0.00,0,Wunderground v.1.15,2013-05-08 05:00:00,
2013-05-08 01:06:00,58.6,52.8,29.95,East,80,0.0,2.0,81,0.00,,,0.00,0,Wunderground v.1.15,2013-05-08 05:06:00,
2013-05-08 01:11:00,58.3,52.8,29.95,East,79,0.0,2.0,82,0.00,,,0.00,0,Wunderground v.1.15,2013-05-08 05:11:00,
2013-05-08 01:17:00,57.9,52.8,29.95,East,79,0.0,2.0,83,0.00,,,0.00,0,Wunderground v.1.15,2013-05-08 05:17:00,
2013-05-08 01:23:00,57.7,52.9,29.95,East,79,0.0,2.0,84,0.00,,,0.00,0,Wunderground v.1.15,2013-05-08 05:23:00,
2013-05-08 01:29:00,57.5,53.0,29.95,East,80,0.0,2.0,85,0.00,,,0.00,0,Wunderground v.1.15,2013-05-08 05:29:00,
2013-05-08 01:35:00,57.2,52.7,29.95,East,79,0.0,2.0,85,0.00,,,0.00,0,Wunderground v.1.15,2013-05-08 05:35:00,
2013-05-08 01:40:00,57.0,52.9,29.95,East,79,0.0,2.0,86,0.00,,,0.00,0,Wunderground v.1.15,2013-05-08 05:40:00,
2013-05-08 01:46:00,56.9,53.1,29.94,East,80,0.0,2.0,87,0.00,,,0.00,0,Wunderground v.1.15,2013-05-08 05:46:00,
2013-05-08 01:52:00,56.8,52.7,29.94,East,79,0.0,2.0,86,0.00,,,0.00,0,Wunderground v.1.15,2013-05-08 05:52:00,
2013-05-08 01:58:00,56.6,52.5,29.94,East,79,0.0,2.0,86,0.00,,,0.00,0,Wunderground v.1.15,2013-05-08 05:58:00,
2013-05-08 02:04:00,56.3,52.2,29.94,East,80,0.0,0.0,86,0.00,,,0.00,0,Wunderground v.1.15,2013-05-08 06:04:00,
2013-05-08 02:10:00,55.9,52.1,29.94,East,80,0.0,0.0,87,0.00,,,0.00,0,Wunderground v.1.15,2013-05-08 06:10:00,
2013-05-08 02:16:00,55.7,52.2,29.94,East,80,0.0,0.0,88,0.00,,,0.00,0,Wunderground v.1.15,2013-05-08 06:16:00,
2013-05-08 02:22:00,55.4,51.6,29.94,East,80,0.0,0.0,87,0.00,,,0.00,0,Wunderground v.1.15,2013-05-08 06:22:00,
2013-05-08 02:28:00,55.1,51.6,29.94,East,80,0.0,0.0,88,0.00,,,0.00,0,Wunderground v.1.15,2013-05-08 06:28:00,
2013-05-08 02:34:00,55.1,51.9,29.93,East,79,0.0,0.0,89,0.00,,,0.00,0,Wunderground v.1.15,2013-05-08 06:34:00,
2013-05-08 02:40:00,55.0,51.8,29.93,East,80,0.0,0.0,89,0.00,,,0.00,0,Wunderground v.1.15,2013-05-08 06:40:00,
2013-05-08 02:46:00,55.1,51.9,29.94,East,80,0.0,0.0,89,0.00,,,0.00,0,Wunderground v.1.15,2013-05-08 06:46:00,
2013-05-08 02:51:00,55.2,51.7,29.94,East,80,0.0,2.0,88,0.00,,,0.00,0,Wunderground v.1.15,2013-05-08 06:51:00,
2013-05-08 02:57:00,55.2,51.7,29.94,East,79,0.0,2.0,88,0.00,,,0.00,0,Wunderground v.1.15,2013-05-08 06:57:00,
2013-05-08 03:03:00,55.1,51.6,29.93,East,80,0.0,0.0,88,0.00,,,0.00,0,Wunderground v.1.15,2013-05-08 07:03:00,
2013-05-08 03:09:00,54.9,51.4,29.93,East,80,0.0,0.0,88,0.00,,,0.00,0,Wunderground v.1.15,2013-05-08 07:09:00,
2013-05-08 03:15:00,54.8,51.6,29.93,East,80,0.0,0.0,89,0.00,,,0.00,0,Wunderground v.1.15,2013-05-08 07:15:00,
2013-05-08 03:20:00,54.8,51.6,29.93,East,80,0.0,0.0,89,0.00,,,0.00,0,Wunderground v.1.15,2013-05-08 07:20:00,
2013-05-08 03:26:00,54.8,52.0,29.93,East,79,0.0,-999.0,89,-99.99,,,0.00,,weatherlink.com 1.10,2013-05-08 07:26:00,
2013-05-08 03:31:00,54.8,51.6,29.93,East,79,0.0,0.0,89,0.00,,,0.00,0,Wunderground v.1.15,2013-05-08 07:31:00,
2013-05-08 03:36:00,54.7,51.8,29.93,East,80,0.0,0.0,90,0.00,,,0.00,0,Wunderground v.1.15,2013-05-08 07:36:00,
2013-05-08 03:42:00,54.6,51.7,29.93,East,79,0.0,0.0,90,0.00,,,0.00,0,Wunderground v.1.15,2013-05-08 07:42:00,
2013-05-08 03:48:00,54.5,51.6,29.93,East,79,0.0,0.0,90,0.00,,,0.00,0,Wunderground v.1.15,2013-05-08 07:48:00,
2013-05-08 03:53:00,54.4,51.5,29.93,East,80,0.0,1.0,90,0.00,,,0.00,0,Wunderground v.1.15,2013-05-08 07:53:00,
2013-05-08 03:59:00,54.4,51.5,29.93,East,79,1.0,1.0,90,0.00,,,0.00,0,Wunderground v.1.15,2013-05-08 07:59:00,
2013-05-08 04:04:00,54.5,51.6,29.94,East,79,0.0,1.0,90,0.00,,,0.00,0,Wunderground v.1.15,2013-05-08 08:04:00,
2013-05-08 04:10:00,54.7,51.5,29.94,East,80,0.0,0.0,89,0.00,,,0.00,0,Wunderground v.1.15,2013-05-08 08:10:00,
2013-05-08 04:15:00,54.9,52.0,29.94,East,80,0.0,0.0,90,0.00,,,0.00,0,Wunderground v.1.15,2013-05-08 08:15:00,
2013-05-08 04:21:00,55.0,52.1,29.94,East,80,0.0,0.0,90,0.00,,,0.00,0,Wunderground v.1.15,2013-05-08 08:21:00,
2013-05-08 04:27:00,55.0,52.0,29.94,East,80,2.0,-999.0,90,-99.99,,,0.00,,weatherlink.com 1.10,2013-05-08 08:27:00,
2013-05-08 04:32:00,55.3,52.1,29.94,East,80,1.0,1.0,89,0.00,,,0.00,0,Wunderground v.1.15,2013-05-08 08:32:00,
2013-05-08 04:38:00,55.5,52.0,29.93,East,79,1.0,1.0,88,0.00,,,0.00,0,Wunderground v.1.15,2013-05-08 08:38:00,
2013-05-08 04:44:00,55.6,51.8,29.93,East,79,1.0,2.0,87,0.00,,,0.00,0,Wunderground v.1.15,2013-05-08 08:44:00,
2013-05-08 04:50:00,55.7,51.6,29.93,ENE,78,1.0,1.0,86,0.00,,,0.00,0,Wunderground v.1.15,2013-05-08 08:50:00,
2013-05-08 04:56:00,55.7,51.6,29.93,ENE,78,1.0,2.0,86,0.00,,,0.00,0,Wunderground v.1.15,2013-05-08 08:56:00,
2013-05-08 05:01:00,55.6,51.5,29.94,ENE,78,1.0,3.0,86,0.00,,,0.00,0,Wunderground v.1.15,2013-05-08 09:01:00,
2013-05-08 05:06:00,55.5,51.4,29.93,ENE,78,0.0,3.0,86,0.00,,,0.00,0,Wunderground v.1.15,2013-05-08 09:06:00,
2013-05-08 05:12:00,55.3,51.2,29.94,ENE,78,0.0,3.0,86,0.00,,,0.00,0,Wunderground v.1.15,2013-05-08 09:12:00,
2013-05-08 05:17:00,55.1,51.0,29.93,ENE,78,0.0,3.0,86,0.00,,,0.00,0,Wunderground v.1.15,2013-05-08 09:17:00,
2013-05-08 05:23:00,54.8,51.0,29.93,ENE,78,1.0,3.0,87,0.00,,,0.00,0,Wunderground v.1.15,2013-05-08 09:23:00,
2013-05-08 05:29:00,54.5,50.7,29.94,ENE,78,1.0,3.0,87,0.00,,,0.00,0,Wunderground v.1.15,2013-05-08 09:29:00,
2013-05-08 05:35:00,54.3,50.8,29.94,ENE,78,0.0,3.0,88,0.00,,,0.00,0,Wunderground v.1.15,2013-05-08 09:35:00,
2013-05-08 05:41:00,54.2,51.0,29.93,ENE,78,0.0,-999.0,88,-99.99,,,0.00,,weatherlink.com 1.10,2013-05-08 09:41:00,
2013-05-08 05:46:00,54.1,50.9,29.93,ENE,78,0.0,3.0,89,0.00,,,0.00,0,Wunderground v.1.15,2013-05-08 09:46:00,
2013-05-08 05:52:00,54.0,50.8,29.94,ENE,78,0.0,3.0,89,0.00,,,0.00,0,Wunderground v.1.15,2013-05-08 09:52:00,
2013-05-08 05:58:00,53.9,50.4,29.94,ENE,78,0.0,3.0,88,0.00,,,0.00,0,Wunderground v.1.15,2013-05-08 09:58:00,
2013-05-08 06:04:00,53.7,50.2,29.94,ENE,78,0.0,2.0,88,0.00,,,0.00,0,Wunderground v.1.15,2013-05-08 10:04:00,
2013-05-08 06:10:00,53.6,50.7,29.94,ENE,78,0.0,2.0,90,0.00,,,0.00,0,Wunderground v.1.15,2013-05-08 10:10:00,
2013-05-08 06:16:00,53.6,51.0,29.94,ENE,78,0.0,2.0,91,0.00,,,0.00,0,Wunderground v.1.15,2013-05-08 10:16:00,
2013-05-08 06:22:00,53.7,50.8,29.94,ENE,78,0.0,2.0,90,0.00,,,0.00,0,Wunderground v.1.15,2013-05-08 10:22:00,
2013-05-08 06:27:00,53.7,50.8,29.95,ENE,78,0.0,2.0,90,0.00,,,0.00,0,Wunderground v.1.15,2013-05-08 10:27:00,
2013-05-08 06:33:00,53.8,50.9,29.95,ENE,78,0.0,2.0,90,0.00,,,0.00,5,Wunderground v.1.15,2013-05-08 10:33:00,
2013-05-08 06:38:00,54.0,51.1,29.95,ENE,78,0.0,2.0,90,0.00,,,0.00,9,Wunderground v.1.15,2013-05-08 10:38:00,
2013-05-08 06:44:00,54.0,50.8,29.95,ENE,78,0.0,2.0,89,0.00,,,0.00,14,Wunderground v.1.15,2013-05-08 10:44:00,
2013-05-08 06:50:00,54.1,50.9,29.95,ENE,78,0.0,2.0,89,0.00,,,0.00,21,Wunderground v.1.15,2013-05-08 10:50:00,
2013-05-08 06:56:00,54.3,51.0,29.95,ENE,78,0.0,-999.0,89,-99.99,,,0.00,,weatherlink.com 1.10,2013-05-08 10:56:00,
2013-05-08 07:01:00,54.5,51.0,29.95,ENE,78,0.0,2.0,88,0.00,,,0.00,28,Wunderground v.1.15,2013-05-08 11:01:00,
2013-05-08 07:07:00,54.7,51.2,29.95,ENE,78,0.0,2.0,88,0.00,,,0.00,37,Wunderground v.1.15,2013-05-08 11:07:00,
2013-05-08 07:13:00,54.8,51.0,29.95,SSE,167,0.0,0.0,87,0.00,,,0.00,63,Wunderground v.1.15,2013-05-08 11:13:00,
2013-05-08 07:19:00,55.2,51.4,29.95,SSE,167,0.0,0.0,87,0.00,,,0.00,79,Wunderground v.1.15,2013-05-08 11:19:00,
2013-05-08 07:25:00,55.4,51.0,29.95,SSE,167,0.0,0.0,85,0.00,,,0.00,84,Wunderground v.1.15,2013-05-08 11:25:00,
2013-05-08 07:30:00,55.4,51.0,29.96,SSE,167,0.0,0.0,85,0.00,,,0.00,83,Wunderground v.1.15,2013-05-08 11:30:00,
2013-05-08 07:36:00,55.5,51.1,29.96,SSE,167,1.0,2.0,85,0.00,,,0.00,123,Wunderground v.1.15,2013-05-08 11:36:00,
2013-05-08 07:42:00,55.8,51.0,29.96,South,169,2.0,3.0,84,0.00,,,0.00,146,Wunderground v.1.15,2013-05-08 11:42:00,
2013-05-08 07:48:00,56.2,51.4,29.96,NW,304,2.0,3.0,84,0.00,,,0.00,160,Wunderground v.1.15,2013-05-08 11:48:00,
2013-05-08 07:54:00,56.8,51.7,29.96,NW,304,2.0,2.0,83,0.00,,,0.00,183,Wunderground v.1.15,2013-05-08 11:54:00,
2013-05-08 07:59:00,57.5,51.7,29.96,NW,307,2.0,2.0,81,0.00,,,0.00,202,Wunderground v.1.15,2013-05-08 11:59:00,
2013-05-08 08:05:00,58.1,52.0,29.96,NW,307,1.0,3.0,80,0.00,,,0.00,213,Wunderground v.1.15,2013-05-08 12:05:00,
2013-05-08 08:10:00,58.7,52.2,29.96,NW,307,1.0,1.0,79,0.00,,,0.00,241,Wunderground v.1.15,2013-05-08 12:10:00,
2013-05-08 08:16:00,59.8,52.6,29.97,NW,307,0.0,3.0,77,0.00,,,0.00,260,Wunderground v.1.15,2013-05-08 12:16:00,
2013-05-08 08:22:00,60.9,52.2,29.96,North,360,1.0,3.0,73,0.00,,,0.00,264,Wunderground v.1.15,2013-05-08 12:22:00,
2013-05-08 08:28:00,61.3,51.8,29.96,NNE,31,2.0,4.0,71,0.00,,,0.00,255,Wunderground v.1.15,2013-05-08 12:28:00,
2013-05-08 08:33:00,61.6,51.7,29.97,NNE,31,2.0,3.0,70,0.00,,,0.00,274,Wunderground v.1.15,2013-05-08 12:33:00,
2013-05-08 08:39:00,62.2,51.5,29.97,NNE,31,2.0,3.0,68,0.00,,,0.00,325,Wunderground v.1.15,2013-05-08 12:39:00,
2013-05-08 08:44:00,62.9,52.2,29.97,NNE,30,2.0,3.0,68,0.00,,,0.00,346,Wunderground v.1.15,2013-05-08 12:44:00,
2013-05-08 08:50:00,63.8,51.4,29.97,NNE,25,2.0,3.0,64,0.00,,,0.00,385,Wunderground v.1.15,2013-05-08 12:50:00,
2013-05-08 08:56:00,64.3,51.0,29.97,NNE,25,2.0,-999.0,63,-99.99,,,0.00,,weatherlink.com 1.10,2013-05-08 12:56:00,
2013-05-08 09:02:00,64.5,51.6,29.97,North,360,3.0,4.0,63,0.00,,,0.00,418,Wunderground v.1.15,2013-05-08 13:02:00,
2013-05-08 09:08:00,64.9,52.0,29.97,North,355,3.0,4.0,63,0.00,,,0.00,432,Wunderground v.1.15,2013-05-08 13:08:00,
2013-05-08 09:14:00,65.5,51.7,29.97,North,355,3.0,5.0,61,0.00,,,0.00,452,Wunderground v.1.15,2013-05-08 13:14:00,
2013-05-08 09:19:00,65.8,50.6,29.97,North,351,3.0,5.0,58,0.00,,,0.00,452,Wunderground v.1.15,2013-05-08 13:19:00,
2013-05-08 09:25:00,66.1,50.9,29.97,North,355,2.0,4.0,58,0.00,,,0.00,399,Wunderground v.1.15,2013-05-08 13:25:00,
2013-05-08 09:31:00,66.3,50.6,29.97,North,355,2.0,4.0,57,0.00,,,0.00,415,Wunderground v.1.15,2013-05-08 13:31:00,
2013-05-08 09:37:00,66.7,50.5,29.97,North,360,3.0,4.0,56,0.00,,,0.00,489,Wunderground v.1.15,2013-05-08 13:37:00,
2013-05-08 09:44:00,67.4,51.6,29.97,NNE,24,2.0,4.0,57,0.00,,,0.00,473,Wunderground v.1.15,2013-05-08 13:44:00,
2013-05-08 09:50:00,67.6,51.3,29.97,NNW,327,2.0,4.0,56,0.00,,,0.00,529,Wunderground v.1.15,2013-05-08 13:50:00,
2013-05-08 09:56:00,67.9,51.6,29.97,NNW,329,2.0,4.0,56,0.00,,,0.00,563,Wunderground v.1.15,2013-05-08 13:56:00,
2013-05-08 10:01:00,68.4,51.1,29.97,NW,312,2.0,5.0,54,0.00,,,0.00,557,Wunderground v.1.15,2013-05-08 14:01:00,
2013-05-08 10:07:00,68.8,51.0,29.97,North,9,2.0,5.0,53,0.00,,,0.00,589,Wunderground v.1.15,2013-05-08 14:07:00,
2013-05-08 10:13:00,69.0,50.6,29.97,NNW,337,3.0,5.0,52,0.00,,,0.00,601,Wunderground v.1.15,2013-05-08 14:13:00,
2013-05-08 10:19:00,69.2,51.3,29.97,North,355,3.0,5.0,53,0.00,,,0.00,543,Wunderground v.1.15,2013-05-08 14:19:00,
2013-05-08 10:24:00,69.4,51.5,29.97,NE,35,3.0,5.0,53,0.00,,,0.00,624,Wunderground v.1.15,2013-05-08 14:24:00,
2013-05-08 10:30:00,69.8,50.9,29.97,NNW,342,3.0,3.0,51,0.00,,,0.00,645,Wunderground v.1.15,2013-05-08 14:30:00,
2013-05-08 10:36:00,70.1,50.6,29.97,NNE,26,5.0,7.0,50,0.00,,,0.00,687,Wunderground v.1.15,2013-05-08 14:36:00,
2013-05-08 10:42:00,70.3,50.8,29.97,NNE,25,5.0,6.0,50,0.00,,,0.00,686,Wunderground v.1.15,2013-05-08 14:42:00,
2013-05-08 10:48:00,70.6,51.1,29.97,NNW,329,5.0,6.0,50,0.00,,,0.00,656,Wunderground v.1.15,2013-05-08 14:48:00,
2013-05-08 10:53:00,70.8,51.2,29.97,NNW,327,4.0,5.0,50,0.00,,,0.00,673,Wunderground v.1.15,2013-05-08 14:53:00,
2013-05-08 10:59:00,71.1,51.5,29.97,ENE,66,4.0,5.0,50,0.00,,,0.00,610,Wunderground v.1.15,2013-05-08 14:59:00,
2013-05-08 11:04:00,71.4,52.3,29.97,NNE,32,4.0,7.0,51,0.00,,,0.00,766,Wunderground v.1.15,2013-05-08 15:04:00,
2013-05-08 11:10:00,72.2,52.0,29.97,East,86,2.0,2.0,49,0.00,,,0.00,758,Wunderground v.1.15,2013-05-08 15:10:00,
2013-05-08 11:16:00,72.2,52.0,29.97,ENE,61,2.0,7.0,49,0.00,,,0.00,800,Wunderground v.1.15,2013-05-08 15:16:00,
2013-05-08 11:22:00,72.2,51.4,29.97,NNW,347,3.0,7.0,48,0.00,,,0.00,796,Wunderground v.1.15,2013-05-08 15:22:00,
2013-05-08 11:28:00,72.6,53.4,29.97,North,355,2.0,7.0,51,0.00,,,0.00,833,Wunderground v.1.15,2013-05-08 15:28:00,
2013-05-08 11:34:00,73.6,52.7,29.97,NNE,19,1.0,7.0,48,0.00,,,0.00,812,Wunderground v.1.15,2013-05-08 15:34:00,
2013-05-08 11:39:00,73.1,51.7,29.97,ENE,59,3.0,7.0,47,0.00,,,0.00,838,Wunderground v.1.15,2013-05-08 15:39:00,
2013-05-08 11:45:00,73.1,52.8,29.96,ENE,74,3.0,7.0,49,0.00,,,0.00,803,Wunderground v.1.15,2013-05-08 15:45:00,
2013-05-08 11:51:00,73.3,53.0,29.96,NW,309,2.0,4.0,49,0.00,,,0.00,856,Wunderground v.1.15,2013-05-08 15:51:00,
2013-05-08 11:57:00,73.7,51.6,29.97,North,5,2.0,7.0,46,0.00,,,0.00,860,Wunderground v.1.15,2013-05-08 15:57:00,
2013-05-08 12:03:00,73.6,52.7,29.97,WSW,253,3.0,7.0,48,0.00,,,0.00,879,Wunderground v.1.15,2013-05-08 16:03:00,
2013-05-08 12:08:00,73.5,52.0,29.96,ENE,65,4.0,9.0,47,0.00,,,0.00,900,Wunderground v.1.15,2013-05-08 16:08:00,
2013-05-08 12:14:00,73.3,52.4,29.96,ENE,69,4.0,7.0,48,0.00,,,0.00,912,Wunderground v.1.15,2013-05-08 16:14:00,
2013-05-08 12:20:00,73.8,52.3,29.96,NE,35,3.0,7.0,47,0.00,,,0.00,921,Wunderground v.1.15,2013-05-08 16:20:00,
2013-05-08 12:26:00,73.8,53.0,29.96,NE,43,2.0,-999.0,48,-99.99,,,0.00,,weatherlink.com 1.10,2013-05-08 16:26:00,
2013-05-08 12:31:00,74.3,51.6,29.96,NNE,32,3.0,7.0,45,0.00,,,0.00,940,Wunderground v.1.15,2013-05-08 16:31:00,
2013-05-08 12:37:00,75.1,51.7,29.96,East,83,2.0,7.0,44,0.00,,,0.00,946,Wunderground v.1.15,2013-05-08 16:37:00,
2013-05-08 12:42:00,75.2,52.0,29.95,NE,55,3.0,-999.0,44,-99.99,,,0.00,,weatherlink.com 1.10,2013-05-08 16:42:00,
2013-05-08 12:48:00,74.7,53.1,29.95,NE,35,4.0,7.0,47,0.00,,,0.00,1004,Wunderground v.1.15,2013-05-08 16:48:00,
2013-05-08 12:54:00,74.6,51.2,29.95,NNE,21,5.0,7.0,44,0.00,,,0.00,1041,Wunderground v.1.15,2013-05-08 16:54:00,
2013-05-08 13:00:00,74.9,51.5,29.95,NNE,29,4.0,4.0,44,0.00,,,0.00,1183,Wunderground v.1.15,2013-05-08 17:00:00,
2013-05-08 13:06:00,74.6,51.9,29.95,East,83,4.0,10.0,45,0.00,,,0.00,434,Wunderground v.1.15,2013-05-08 17:06:00,
2013-05-08 13:12:00,74.7,52.5,29.94,North,355,2.0,10.0,46,0.00,,,0.00,452,Wunderground v.1.15,2013-05-08 17:12:00,
2013-05-08 13:18:00,75.1,50.4,29.94,North,5,3.0,10.0,42,0.00,,,0.00,1229,Wunderground v.1.15,2013-05-08 17:18:00,
2013-05-08 13:23:00,75.3,50.0,29.94,NNW,339,3.0,10.0,41,0.00,,,0.00,445,Wunderground v.1.15,2013-05-08 17:23:00,
2013-05-08 13:29:00,75.3,51.3,29.94,NNW,342,3.0,10.0,43,0.00,,,0.00,399,Wunderground v.1.15,2013-05-08 17:29:00,
2013-05-08 13:35:00,75.2,51.2,29.94,NW,320,3.0,10.0,43,0.00,,,0.00,640,Wunderground v.1.15,2013-05-08 17:35:00,
2013-05-08 13:40:00,75.2,50.5,29.94,NE,36,4.0,10.0,42,0.00,,,0.00,443,Wunderground v.1.15,2013-05-08 17:40:00,
2013-05-08 13:46:00,74.9,50.3,29.94,NNE,28,4.0,10.0,42,0.00,,,0.00,311,Wunderground v.1.15,2013-05-08 17:46:00,
2013-05-08 13:51:00,74.9,50.9,29.93,NE,44,5.0,10.0,43,0.00,,,0.00,733,Wunderground v.1.15,2013-05-08 17:51:00,
2013-05-08 13:57:00,75.8,50.4,29.93,East,79,3.0,10.0,41,0.00,,,0.00,1292,Wunderground v.1.15,2013-05-08 17:57:00,
2013-05-08 14:02:00,75.8,49.8,29.94,East,80,2.0,11.0,40,0.00,,,0.00,432,Wunderground v.1.15,2013-05-08 18:02:00,
2013-05-08 14:08:00,75.5,49.5,29.93,ENE,59,3.0,11.0,40,0.00,,,0.00,332,Wunderground v.1.15,2013-05-08 18:08:00,
2013-05-08 14:14:00,75.3,50.0,29.93,North,355,3.0,11.0,41,0.00,,,0.00,227,Wunderground v.1.15,2013-05-08 18:14:00,
2013-05-08 14:20:00,75.1,50.4,29.93,NNW,337,3.0,11.0,42,0.00,,,0.00,190,Wunderground v.1.15,2013-05-08 18:20:00,
2013-05-08 14:25:00,74.8,50.8,29.93,North,355,4.0,11.0,43,0.00,,,0.00,204,Wunderground v.1.15,2013-05-08 18:25:00,
2013-05-08 14:30:00,74.6,51.9,29.93,NNW,344,4.0,4.0,45,0.00,,,0.00,230,Wunderground v.1.15,2013-05-08 18:30:00,
2013-05-08 14:36:00,74.4,50.4,29.93,North,360,4.0,11.0,43,0.00,,,0.00,290,Wunderground v.1.15,2013-05-08 18:36:00,
2013-05-08 14:41:00,74.4,51.1,29.93,NNW,338,3.0,11.0,44,0.00,,,0.00,348,Wunderground v.1.15,2013-05-08 18:41:00,
2013-05-08 14:47:00,74.7,50.7,29.93,North,5,2.0,11.0,43,0.00,,,0.00,380,Wunderground v.1.15,2013-05-08 18:47:00,
2013-05-08 14:53:00,74.9,50.9,29.93,North,360,1.0,11.0,43,0.00,,,0.00,348,Wunderground v.1.15,2013-05-08 18:53:00,
2013-05-08 14:59:00,75.1,51.1,29.93,NNW,338,0.0,11.0,43,0.00,,,0.00,318,Wunderground v.1.15,2013-05-08 18:59:00,
2013-05-08 15:05:00,75.3,49.3,29.93,NW,313,1.0,9.0,40,0.00,,,0.00,325,Wunderground v.1.15,2013-05-08 19:05:00,
2013-05-08 15:11:00,75.4,49.0,29.93,WNW,294,0.0,-999.0,39,-99.99,,,0.00,,weatherlink.com 1.10,2013-05-08 19:11:00,
2013-05-08 15:16:00,75.5,50.1,29.92,North,355,2.0,9.0,41,0.00,,,0.00,376,Wunderground v.1.15,2013-05-08 19:16:00,
2013-05-08 15:22:00,75.5,49.5,29.92,NNW,334,3.0,9.0,40,0.00,,,0.00,378,Wunderground v.1.15,2013-05-08 19:22:00,
2013-05-08 15:28:00,75.5,49.5,29.92,West,272,4.0,9.0,40,0.00,,,0.00,420,Wunderground v.1.15,2013-05-08 19:28:00,
2013-05-08 15:34:00,75.7,49.0,29.92,WNW,296,4.0,9.0,39,0.00,,,0.00,515,Wunderground v.1.15,2013-05-08 19:34:00,
2013-05-08 15:39:00,75.7,49.0,29.92,NW,308,4.0,9.0,39,0.00,,,0.00,371,Wunderground v.1.15,2013-05-08 19:39:00,
2013-05-08 15:45:00,75.9,49.8,29.92,WNW,299,3.0,9.0,40,0.00,,,0.00,380,Wunderground v.1.15,2013-05-08 19:45:00,
2013-05-08 15:51:00,75.8,49.1,29.91,West,267,4.0,9.0,39,0.00,,,0.00,381,Wunderground v.1.15,2013-05-08 19:51:00,
2013-05-08 15:57:00,75.8,49.0,29.91,WNW,298,2.0,-999.0,39,-99.99,,,0.00,,weatherlink.com 1.10,2013-05-08 19:57:00,
2013-05-08 16:02:00,75.7,49.0,29.92,West,275,3.0,10.0,39,0.00,,,0.00,267,Wunderground v.1.15,2013-05-08 20:02:00,
2013-05-08 16:08:00,75.5,48.8,29.91,West,281,3.0,10.0,39,0.00,,,0.00,248,Wunderground v.1.15,2013-05-08 20:08:00,
2013-05-08 16:14:00,75.5,49.5,29.91,NW,315,3.0,10.0,40,0.00,,,0.00,244,Wunderground v.1.15,2013-05-08 20:14:00,
2013-05-08 16:20:00,75.4,50.1,29.91,NW,304,2.0,10.0,41,0.00,,,0.00,311,Wunderground v.1.15,2013-05-08 20:20:00,
2013-05-08 16:25:00,75.8,50.4,29.91,NW,310,3.0,10.0,41,0.00,,,0.00,452,Wunderground v.1.15,2013-05-08 20:25:00,
2013-05-08 16:31:00,75.8,50.4,29.91,NNW,329,4.0,10.0,41,0.00,,,0.00,325,Wunderground v.1.15,2013-05-08 20:31:00,
2013-05-08 16:37:00,75.9,49.8,29.91,NNE,21,4.0,10.0,40,0.00,,,0.00,271,Wunderground v.1.15,2013-05-08 20:37:00,
2013-05-08 16:43:00,75.6,49.6,29.91,NNW,327,3.0,10.0,40,0.00,,,0.00,279,Wunderground v.1.15,2013-05-08 20:43:00,
2013-05-08 16:48:00,75.6,49.6,29.90,NW,326,2.0,10.0,40,0.00,,,0.00,304,Wunderground v.1.15,2013-05-08 20:48:00,
2013-05-08 16:54:00,75.6,50.9,29.90,NNW,334,2.0,10.0,42,0.00,,,0.00,320,Wunderground v.1.15,2013-05-08 20:54:00,
2013-05-08 17:00:00,75.7,50.3,29.90,North,5,1.0,3.0,41,0.00,,,0.00,304,Wunderground v.1.15,2013-05-08 21:00:00,
2013-05-08 17:06:00,75.5,50.1,29.90,NNE,17,2.0,11.0,41,0.00,,,0.00,287,Wunderground v.1.15,2013-05-08 21:06:00,
2013-05-08 17:12:00,75.3,49.3,29.90,NNE,26,2.0,6.0,40,0.00,,,0.00,290,Wunderground v.1.15,2013-05-08 21:12:00,
2013-05-08 17:18:00,75.1,49.1,29.90,North,355,2.0,11.0,40,0.00,,,0.00,323,Wunderground v.1.15,2013-05-08 21:18:00,
2013-05-08 17:24:00,75.2,49.9,29.90,NNE,33,2.0,11.0,41,0.00,,,0.00,352,Wunderground v.1.15,2013-05-08 21:24:00,
2013-05-08 17:30:00,75.4,48.7,29.90,North,5,2.0,11.0,39,0.00,,,0.00,497,Wunderground v.1.15,2013-05-08 21:30:00,
2013-05-08 17:35:00,75.6,48.9,29.90,North,355,3.0,11.0,39,0.00,,,0.00,348,Wunderground v.1.15,2013-05-08 21:35:00,
2013-05-08 17:41:00,76.0,47.8,29.90,NE,42,3.0,11.0,37,0.00,,,0.00,526,Wunderground v.1.15,2013-05-08 21:41:00,
2013-05-08 17:46:00,76.1,48.6,29.90,NNE,33,3.0,11.0,38,0.00,,,0.00,726,Wunderground v.1.15,2013-05-08 21:46:00,
2013-05-08 17:51:00,76.4,48.2,29.90,NE,36,4.0,11.0,37,0.00,,,0.00,649,Wunderground v.1.15,2013-05-08 21:51:00,
2013-05-08 17:57:00,76.8,47.8,29.91,WNW,292,2.0,11.0,36,0.00,,,0.00,599,Wunderground v.1.15,2013-05-08 21:57:00,
2013-05-08 18:02:00,76.8,49.3,29.91,WNW,290,2.0,9.0,38,0.00,,,0.00,251,Wunderground v.1.15,2013-05-08 22:02:00,
2013-05-08 18:08:00,76.6,49.1,29.90,NNW,333,2.0,9.0,38,0.00,,,0.00,236,Wunderground v.1.15,2013-05-08 22:08:00,
2013-05-08 18:14:00,76.2,48.0,29.90,NW,326,3.0,9.0,37,0.00,,,0.00,213,Wunderground v.1.15,2013-05-08 22:14:00,
2013-05-08 18:20:00,76.0,49.2,29.91,West,280,3.0,9.0,39,0.00,,,0.00,171,Wunderground v.1.15,2013-05-08 22:20:00,
2013-05-08 18:26:00,74.7,51.0,29.91,WNW,299,11.0,-999.0,44,-99.99,,,0.00,,weatherlink.com 1.10,2013-05-08 22:26:00,
2013-05-08 18:32:00,73.1,51.7,29.91,West,267,9.0,12.0,47,0.00,,,0.00,134,Wunderground v.1.15,2013-05-08 22:32:00,
2013-05-08 18:38:00,72.3,51.5,29.91,WNW,298,7.0,13.0,48,0.00,,,0.00,113,Wunderground v.1.15,2013-05-08 22:38:00,
2013-05-08 18:44:00,72.0,51.2,29.91,WNW,296,6.0,9.0,48,0.00,,,0.00,111,Wunderground v.1.15,2013-05-08 22:44:00,
2013-05-08 18:50:00,71.8,51.0,29.91,NW,307,5.0,5.0,48,0.00,,,0.00,98,Wunderground v.1.15,2013-05-08 22:50:00,
2013-05-08 18:56:00,71.7,50.0,29.91,WNW,298,7.0,-999.0,47,-99.99,,,0.00,,weatherlink.com 1.10,2013-05-08 22:56:00,
2013-05-08 19:01:00,71.5,49.6,29.91,WNW,289,4.0,22.0,46,0.00,,,0.00,81,Wunderground v.1.15,2013-05-08 23:01:00,
2013-05-08 19:07:00,71.5,49.6,29.91,West,267,5.0,22.0,46,0.00,,,0.00,77,Wunderground v.1.15,2013-05-08 23:07:00,
2013-05-08 19:13:00,71.5,49.6,29.91,West,264,4.0,22.0,46,0.00,,,0.00,86,Wunderground v.1.15,2013-05-08 23:13:00,
2013-05-08 19:18:00,71.4,50.1,29.91,West,265,2.0,22.0,47,0.00,,,0.00,90,Wunderground v.1.15,2013-05-08 23:18:00,
2013-05-08 19:24:00,71.4,50.1,29.91,WNW,300,2.0,22.0,47,0.00,,,0.00,88,Wunderground v.1.15,2013-05-08 23:24:00,
2013-05-08 19:30:00,71.3,50.0,29.91,NW,304,1.0,1.0,47,0.00,,,0.00,77,Wunderground v.1.15,2013-05-08 23:30:00,
2013-05-08 19:36:00,71.1,49.8,29.90,WNW,283,0.0,22.0,47,0.00,,,0.00,58,Wunderground v.1.15,2013-05-08 23:36:00,
2013-05-08 19:42:00,71.0,49.7,29.91,West,281,0.0,22.0,47,0.00,,,0.00,51,Wunderground v.1.15,2013-05-08 23:42:00,
2013-05-08 19:48:00,70.9,49.7,29.91,West,281,0.0,22.0,47,0.00,,,0.00,77,Wunderground v.1.15,2013-05-08 23:48:00,
2013-05-08 19:54:00,70.8,50.1,29.91,WNW,282,0.0,22.0,48,0.00,,,0.00,47,Wunderground v.1.15,2013-05-08 23:54:00,
2013-05-08 19:59:00,70.7,50.0,29.90,West,281,0.0,22.0,48,0.00,,,0.00,39,Wunderground v.1.15,2013-05-08 23:59:00,
2013-05-08 20:05:00,70.6,51.1,29.90,West,281,0.0,7.0,50,0.00,,,0.00,35,Wunderground v.1.15,2013-05-09 00:05:00,
2013-05-08 20:11:00,70.5,52.0,29.90,WNW,282,0.0,-999.0,52,-99.99,,,0.00,,weatherlink.com 1.10,2013-05-09 00:11:00,
2013-05-08 20:17:00,70.4,50.3,29.91,West,281,0.0,7.0,49,0.00,,,0.00,23,Wunderground v.1.15,2013-05-09 00:17:00,
2013-05-08 20:23:00,69.9,51.5,29.91,ENE,63,1.0,7.0,52,0.00,,,0.00,18,Wunderground v.1.15,2013-05-09 00:23:00,
2013-05-08 20:28:00,69.6,51.7,29.91,ENE,63,1.0,7.0,53,0.00,,,0.00,14,Wunderground v.1.15,2013-05-09 00:28:00,
2013-05-08 20:34:00,69.4,52.0,29.92,ENE,63,0.0,7.0,54,0.00,,,0.00,5,Wunderground v.1.15,2013-05-09 00:34:00,
2013-05-08 20:40:00,69.1,51.2,29.92,ESE,105,0.0,7.0,53,0.00,,,0.00,0,Wunderground v.1.15,2013-05-09 00:40:00,
2013-05-08 20:46:00,68.9,53.0,29.93,ENE,71,1.0,7.0,57,0.00,,,0.00,0,Wunderground v.1.15,2013-05-09 00:46:00,
2013-05-08 20:51:00,68.7,53.3,29.93,ENE,73,3.0,7.0,58,0.00,,,0.00,0,Wunderground v.1.15,2013-05-09 00:51:00,
2013-05-08 20:57:00,68.4,53.0,29.93,ENE,76,2.0,7.0,58,0.00,,,0.00,0,Wunderground v.1.15,2013-05-09 00:57:00,
2013-05-08 21:03:00,68.1,53.7,29.93,ENE,75,1.0,5.0,60,0.00,,,0.00,0,Wunderground v.1.15,2013-05-09 01:03:00,
2013-05-08 21:08:00,67.6,54.1,29.93,East,82,2.0,5.0,62,0.00,,,0.00,0,Wunderground v.1.15,2013-05-09 01:08:00,
2013-05-08 21:14:00,67.3,53.4,29.93,ENE,72,2.0,5.0,61,0.00,,,0.00,0,Wunderground v.1.15,2013-05-09 01:14:00,
2013-05-08 21:20:00,67.0,53.1,29.93,East,91,1.0,5.0,61,0.00,,,0.00,0,Wunderground v.1.15,2013-05-09 01:20:00,
2013-05-08 21:26:00,66.9,52.6,29.93,ESE,103,1.0,5.0,60,0.00,,,0.00,0,Wunderground v.1.15,2013-05-09 01:26:00,
2013-05-08 21:31:00,66.9,52.6,29.93,SE,125,0.0,5.0,60,0.00,,,0.00,0,Wunderground v.1.15,2013-05-09 01:31:00,
2013-05-08 21:37:00,66.8,52.9,29.93,SE,125,0.0,5.0,61,0.00,,,0.00,0,Wunderground v.1.15,2013-05-09 01:37:00,
2013-05-08 21:42:00,66.7,53.3,29.93,SE,126,0.0,5.0,62,0.00,,,0.00,0,Wunderground v.1.15,2013-05-09 01:42:00,
2013-05-08 21:48:00,66.5,53.5,29.93,SE,126,0.0,5.0,63,0.00,,,0.00,0,Wunderground v.1.15,2013-05-09 01:48:00,
2013-05-08 21:53:00,66.2,53.7,29.93,SE,125,0.0,5.0,64,0.00,,,0.00,0,Wunderground v.1.15,2013-05-09 01:53:00,
2013-05-08 21:59:00,65.9,54.2,29.94,SE,126,0.0,5.0,66,0.00,,,0.00,0,Wunderground v.1.15,2013-05-09 01:59:00,
2013-05-08 22:05:00,65.4,54.2,29.94,SE,126,0.0,6.0,67,0.00,,,0.00,0,Wunderground v.1.15,2013-05-09 02:05:00,
2013-05-08 22:11:00,65.1,54.0,29.94,SE,125,0.0,-999.0,68,-99.99,,,0.00,,weatherlink.com 1.10,2013-05-09 02:11:00,
2013-05-08 22:16:00,64.8,54.4,29.94,SE,126,0.0,6.0,69,0.00,,,0.00,0,Wunderground v.1.15,2013-05-09 02:16:00,
2013-05-08 22:22:00,64.6,54.2,29.94,SE,125,0.0,6.0,69,0.00,,,0.00,0,Wunderground v.1.15,2013-05-09 02:22:00,
2013-05-08 22:28:00,64.4,54.0,29.95,SE,126,0.0,6.0,69,0.00,,,0.00,0,Wunderground v.1.15,2013-05-09 02:28:00,
2013-05-08 22:34:00,64.4,54.4,29.95,SE,125,0.0,6.0,70,0.00,,,0.00,0,Wunderground v.1.15,2013-05-09 02:34:00,
2013-05-08 22:39:00,64.3,54.3,29.94,SE,126,0.0,6.0,70,0.00,,,0.00,0,Wunderground v.1.15,2013-05-09 02:39:00,
2013-05-08 22:45:00,64.0,54.4,29.94,SE,126,0.0,6.0,71,0.00,,,0.00,0,Wunderground v.1.15,2013-05-09 02:45:00,
2013-05-08 22:51:00,63.8,54.2,29.94,SE,126,0.0,6.0,71,0.00,,,0.00,0,Wunderground v.1.15,2013-05-09 02:51:00,
2013-05-08 22:57:00,63.5,53.5,29.94,SE,126,0.0,6.0,70,0.00,,,0.00,0,Wunderground v.1.15,2013-05-09 02:57:00,
2013-05-08 23:02:00,63.3,53.7,29.94,SE,126,0.0,1.0,71,0.00,,,0.00,0,Wunderground v.1.15,2013-05-09 03:02:00,
2013-05-08 23:08:00,62.7,53.9,29.94,SE,130,0.0,1.0,73,0.00,,,0.00,0,Wunderground v.1.15,2013-05-09 03:08:00,
2013-05-08 23:14:00,62.9,53.7,29.94,SW,227,1.0,3.0,72,0.00,,,0.00,0,Wunderground v.1.15,2013-05-09 03:14:00,
2013-05-08 23:19:00,63.1,53.5,29.94,SSW,203,1.0,3.0,71,0.00,,,0.00,0,Wunderground v.1.15,2013-05-09 03:19:00,
2013-05-08 23:25:00,63.1,53.9,29.94,SW,233,1.0,2.0,72,0.00,,,0.00,0,Wunderground v.1.15,2013-05-09 03:25:00,
2013-05-08 23:31:00,63.1,53.5,29.94,SW,221,1.0,3.0,71,0.00,,,0.00,0,Wunderground v.1.15,2013-05-09 03:31:00,
2013-05-08 23:36:00,63.1,53.5,29.94,SW,221,2.0,3.0,71,0.00,,,0.00,0,Wunderground v.1.15,2013-05-09 03:36:00,
2013-05-08 23:41:00,62.9,53.4,29.93,SW,221,1.0,1.0,71,0.00,,,0.00,0,Wunderground v.1.15,2013-05-09 03:41:00,
2013-05-08 23:46:00,62.7,53.9,29.93,SW,221,0.0,1.0,73,0.00,,,0.00,0,Wunderground v.1.15,2013-05-09 03:46:00,
2013-05-08 23:52:00,62.4,54.7,29.93,SW,221,0.0,0.0,76,0.00,,,0.00,0,Wunderground v.1.15,2013-05-09 03:52:00,
2013-05-08 23:57:00,62.0,54.3,29.93,SW,221,0.0,0.0,76,0.00,,,0.00,0,Wunderground v.1.15,2013-05-09 03:57:00,